sensor_id;sensor_type;location;lat;lon;timestamp;P1;durP1;ratioP1;P2;durP2;ratioP2
38567;SDS011;24338;48.280;10.970;2023-02-01T00:00:29;9.45;;;4.47;;
38567;SDS011;24338;48.280;10.970;2023-02-01T00:02:56;7.72;;;5.25;;
38567;SDS011;24338;48.280;10.970;2023-02-01T00:05:23;9.68;;;5.35;;
38567;SDS011;24338;48.280;10.970;2023-02-01T00:07:50;9.65;;;4.82;;
38567;SDS011;24338;48.280;10.970;2023-02-01T00:10:17;8.57;;;4.65;;
38567;SDS011;24338;48.280;10.970;2023-02-01T00:12:44;8.43;;;5.00;;
38567;SDS011;24338;48.280;10.970;2023-02-01T00:15:10;13.20;;;5.93;;
38567;SDS011;24338;48.280;10.970;2023-02-01T00:17:37;9.10;;;5.30;;
38567;SDS011;24338;48.280;10.970;2023-02-01T00:20:04;8.23;;;5.68;;
38567;SDS011;24338;48.280;10.970;2023-02-01T00:22:31;10.23;;;5.07;;
38567;SDS011;24338;48.280;10.970;2023-02-01T00:24:58;8.98;;;4.85;;
38567;SDS011;24338;48.280;10.970;2023-02-01T00:27:25;9.88;;;5.35;;
38567;SDS011;24338;48.280;10.970;2023-02-01T00:29:53;11.98;;;5.82;;
38567;SDS011;24338;48.280;10.970;2023-02-01T00:32:21;8.95;;;5.75;;
38567;SDS011;24338;48.280;10.970;2023-02-01T00:34:48;10.45;;;6.30;;
38567;SDS011;24338;48.280;10.970;2023-02-01T00:37:15;9.30;;;5.22;;
38567;SDS011;24338;48.280;10.970;2023-02-01T00:39:41;9.65;;;6.32;;
38567;SDS011;24338;48.280;10.970;2023-02-01T00:42:08;10.35;;;5.40;;
38567;SDS011;24338;48.280;10.970;2023-02-01T00:44:36;12.10;;;6.15;;
38567;SDS011;24338;48.280;10.970;2023-02-01T00:47:02;10.32;;;5.68;;
38567;SDS011;24338;48.280;10.970;2023-02-01T00:49:29;9.07;;;5.90;;
38567;SDS011;24338;48.280;10.970;2023-02-01T00:51:56;10.43;;;6.55;;
38567;SDS011;24338;48.280;10.970;2023-02-01T00:54:23;11.38;;;5.97;;
38567;SDS011;24338;48.280;10.970;2023-02-01T00:56:50;12.07;;;6.63;;
38567;SDS011;24338;48.280;10.970;2023-02-01T00:59:17;10.35;;;6.18;;
38567;SDS011;24338;48.280;10.970;2023-02-01T01:01:43;10.18;;;5.93;;
38567;SDS011;24338;48.280;10.970;2023-02-01T01:04:10;12.60;;;6.07;;
38567;SDS011;24338;48.280;10.970;2023-02-01T01:06:37;12.35;;;7.25;;
38567;SDS011;24338;48.280;10.970;2023-02-01T01:09:05;11.45;;;6.72;;
38567;SDS011;24338;48.280;10.970;2023-02-01T01:11:34;12.73;;;7.20;;
38567;SDS011;24338;48.280;10.970;2023-02-01T01:14:03;12.70;;;7.00;;
38567;SDS011;24338;48.280;10.970;2023-02-01T01:16:32;11.63;;;6.97;;
38567;SDS011;24338;48.280;10.970;2023-02-01T01:18:59;10.60;;;7.18;;
38567;SDS011;24338;48.280;10.970;2023-02-01T01:21:27;12.35;;;7.63;;
38567;SDS011;24338;48.280;10.970;2023-02-01T01:23:54;12.00;;;7.38;;
38567;SDS011;24338;48.280;10.970;2023-02-01T01:26:22;13.25;;;7.63;;
38567;SDS011;24338;48.280;10.970;2023-02-01T01:28:51;12.70;;;7.30;;
38567;SDS011;24338;48.280;10.970;2023-02-01T01:31:20;12.20;;;7.53;;
38567;SDS011;24338;48.280;10.970;2023-02-01T01:33:48;12.35;;;7.22;;
38567;SDS011;24338;48.280;10.970;2023-02-01T01:36:17;12.48;;;6.85;;
38567;SDS011;24338;48.280;10.970;2023-02-01T01:38:44;12.00;;;7.55;;
38567;SDS011;24338;48.280;10.970;2023-02-01T01:41:12;13.15;;;7.88;;
38567;SDS011;24338;48.280;10.970;2023-02-01T01:43:49;13.07;;;7.70;;
38567;SDS011;24338;48.280;10.970;2023-02-01T01:46:18;13.43;;;8.02;;
38567;SDS011;24338;48.280;10.970;2023-02-01T01:48:52;12.05;;;7.97;;
38567;SDS011;24338;48.280;10.970;2023-02-01T01:51:26;13.45;;;8.77;;
38567;SDS011;24338;48.280;10.970;2023-02-01T01:54:02;11.93;;;7.40;;
38567;SDS011;24338;48.280;10.970;2023-02-01T01:56:51;12.45;;;7.45;;
38567;SDS011;24338;48.280;10.970;2023-02-01T01:59:22;13.63;;;8.30;;
38567;SDS011;24338;48.280;10.970;2023-02-01T02:01:51;9.95;;;6.53;;
38567;SDS011;24338;48.280;10.970;2023-02-01T02:04:18;11.57;;;7.70;;
38567;SDS011;24338;48.280;10.970;2023-02-01T02:06:47;13.70;;;8.27;;
38567;SDS011;24338;48.280;10.970;2023-02-01T02:09:25;11.88;;;7.63;;
38567;SDS011;24338;48.280;10.970;2023-02-01T02:11:52;12.45;;;7.45;;
38567;SDS011;24338;48.280;10.970;2023-02-01T02:14:19;12.05;;;7.10;;
38567;SDS011;24338;48.280;10.970;2023-02-01T02:19:23;15.27;;;6.93;;
38567;SDS011;24338;48.280;10.970;2023-02-01T02:42:34;8.88;;;5.82;;
38567;SDS011;24338;48.280;10.970;2023-02-01T02:48:44;11.25;;;6.22;;
38567;SDS011;24338;48.280;10.970;2023-02-01T02:54:36;10.35;;;5.88;;
38567;SDS011;24338;48.280;10.970;2023-02-01T02:57:13;11.20;;;5.85;;
38567;SDS011;24338;48.280;10.970;2023-02-01T03:00:14;9.45;;;5.28;;
38567;SDS011;24338;48.280;10.970;2023-02-01T03:03:02;9.57;;;5.25;;
38567;SDS011;24338;48.280;10.970;2023-02-01T03:05:48;9.38;;;5.03;;
38567;SDS011;24338;48.280;10.970;2023-02-01T03:08:29;10.63;;;5.80;;
38567;SDS011;24338;48.280;10.970;2023-02-01T03:10:59;8.10;;;5.68;;
38567;SDS011;24338;48.280;10.970;2023-02-01T03:13:49;10.80;;;5.07;;
38567;SDS011;24338;48.280;10.970;2023-02-01T03:21:50;9.10;;;4.93;;
38567;SDS011;24338;48.280;10.970;2023-02-01T03:24:25;11.00;;;6.53;;
38567;SDS011;24338;48.280;10.970;2023-02-01T03:27:03;11.48;;;6.53;;
38567;SDS011;24338;48.280;10.970;2023-02-01T03:29:39;10.40;;;5.70;;
38567;SDS011;24338;48.280;10.970;2023-02-01T03:32:14;7.95;;;4.93;;
38567;SDS011;24338;48.280;10.970;2023-02-01T03:34:41;8.95;;;5.35;;
38567;SDS011;24338;48.280;10.970;2023-02-01T03:37:09;8.88;;;4.95;;
38567;SDS011;24338;48.280;10.970;2023-02-01T03:42:20;8.30;;;4.97;;
38567;SDS011;24338;48.280;10.970;2023-02-01T03:45:00;10.27;;;5.10;;
38567;SDS011;24338;48.280;10.970;2023-02-01T03:47:35;9.63;;;5.05;;
38567;SDS011;24338;48.280;10.970;2023-02-01T03:50:08;8.38;;;4.78;;
38567;SDS011;24338;48.280;10.970;2023-02-01T03:52:43;8.95;;;4.90;;
38567;SDS011;24338;48.280;10.970;2023-02-01T03:55:15;10.18;;;5.28;;
38567;SDS011;24338;48.280;10.970;2023-02-01T03:57:50;8.35;;;4.97;;
38567;SDS011;24338;48.280;10.970;2023-02-01T04:00:21;10.52;;;6.20;;
38567;SDS011;24338;48.280;10.970;2023-02-01T04:02:51;12.88;;;5.20;;
38567;SDS011;24338;48.280;10.970;2023-02-01T04:05:19;7.38;;;4.38;;
38567;SDS011;24338;48.280;10.970;2023-02-01T04:07:46;8.07;;;4.40;;
38567;SDS011;24338;48.280;10.970;2023-02-01T04:10:13;7.68;;;5.25;;
38567;SDS011;24338;48.280;10.970;2023-02-01T04:12:44;9.18;;;5.82;;
38567;SDS011;24338;48.280;10.970;2023-02-01T04:15:11;8.13;;;4.78;;
38567;SDS011;24338;48.280;10.970;2023-02-01T04:17:38;9.55;;;5.70;;
38567;SDS011;24338;48.280;10.970;2023-02-01T04:20:04;9.50;;;5.30;;
38567;SDS011;24338;48.280;10.970;2023-02-01T04:22:32;12.18;;;5.72;;
38567;SDS011;24338;48.280;10.970;2023-02-01T04:24:58;9.63;;;5.13;;
38567;SDS011;24338;48.280;10.970;2023-02-01T04:27:25;10.57;;;5.40;;
38567;SDS011;24338;48.280;10.970;2023-02-01T04:29:52;7.38;;;4.75;;
38567;SDS011;24338;48.280;10.970;2023-02-01T04:32:22;7.97;;;4.85;;
38567;SDS011;24338;48.280;10.970;2023-02-01T04:34:48;6.90;;;4.60;;
38567;SDS011;24338;48.280;10.970;2023-02-01T04:37:15;9.45;;;4.88;;
38567;SDS011;24338;48.280;10.970;2023-02-01T04:39:42;10.80;;;4.85;;
38567;SDS011;24338;48.280;10.970;2023-02-01T04:42:09;9.68;;;5.93;;
38567;SDS011;24338;48.280;10.970;2023-02-01T04:44:36;7.75;;;4.65;;
38567;SDS011;24338;48.280;10.970;2023-02-01T04:47:08;7.95;;;4.85;;
38567;SDS011;24338;48.280;10.970;2023-02-01T04:49:35;7.70;;;4.35;;
38567;SDS011;24338;48.280;10.970;2023-02-01T04:52:02;8.20;;;4.25;;
38567;SDS011;24338;48.280;10.970;2023-02-01T04:54:29;7.35;;;4.43;;
38567;SDS011;24338;48.280;10.970;2023-02-01T04:56:56;11.18;;;5.38;;
38567;SDS011;24338;48.280;10.970;2023-02-01T04:59:23;8.73;;;5.47;;
38567;SDS011;24338;48.280;10.970;2023-02-01T05:01:49;7.10;;;4.30;;
38567;SDS011;24338;48.280;10.970;2023-02-01T05:04:16;8.23;;;4.75;;
38567;SDS011;24338;48.280;10.970;2023-02-01T05:06:45;9.27;;;5.18;;
38567;SDS011;24338;48.280;10.970;2023-02-01T05:09:12;7.30;;;4.57;;
38567;SDS011;24338;48.280;10.970;2023-02-01T05:11:38;7.97;;;4.68;;
38567;SDS011;24338;48.280;10.970;2023-02-01T05:14:24;10.93;;;5.63;;
38567;SDS011;24338;48.280;10.970;2023-02-01T05:16:51;11.27;;;5.85;;
38567;SDS011;24338;48.280;10.970;2023-02-01T05:19:18;9.60;;;4.57;;
38567;SDS011;24338;48.280;10.970;2023-02-01T05:21:44;8.90;;;4.55;;
38567;SDS011;24338;48.280;10.970;2023-02-01T05:24:11;7.75;;;4.60;;
38567;SDS011;24338;48.280;10.970;2023-02-01T05:26:40;8.18;;;4.68;;
38567;SDS011;24338;48.280;10.970;2023-02-01T05:29:07;9.88;;;5.47;;
38567;SDS011;24338;48.280;10.970;2023-02-01T05:31:36;9.13;;;5.45;;
38567;SDS011;24338;48.280;10.970;2023-02-01T05:34:03;8.65;;;4.93;;
38567;SDS011;24338;48.280;10.970;2023-02-01T05:36:31;7.80;;;4.55;;
38567;SDS011;24338;48.280;10.970;2023-02-01T05:38:58;7.78;;;4.43;;
38567;SDS011;24338;48.280;10.970;2023-02-01T05:41:25;9.85;;;5.03;;
38567;SDS011;24338;48.280;10.970;2023-02-01T05:44:01;10.75;;;4.45;;
38567;SDS011;24338;48.280;10.970;2023-02-01T05:46:34;6.93;;;4.72;;
38567;SDS011;24338;48.280;10.970;2023-02-01T05:49:02;7.55;;;4.90;;
38567;SDS011;24338;48.280;10.970;2023-02-01T05:51:29;7.90;;;4.88;;
38567;SDS011;24338;48.280;10.970;2023-02-01T05:53:56;9.02;;;4.85;;
38567;SDS011;24338;48.280;10.970;2023-02-01T05:56:23;8.82;;;4.65;;
38567;SDS011;24338;48.280;10.970;2023-02-01T05:58:50;8.90;;;5.38;;
38567;SDS011;24338;48.280;10.970;2023-02-01T06:01:16;7.95;;;4.97;;
38567;SDS011;24338;48.280;10.970;2023-02-01T06:03:43;10.60;;;5.50;;
38567;SDS011;24338;48.280;10.970;2023-02-01T06:06:10;9.55;;;5.50;;
38567;SDS011;24338;48.280;10.970;2023-02-01T06:08:37;12.05;;;6.63;;
38567;SDS011;24338;48.280;10.970;2023-02-01T06:11:06;10.75;;;5.18;;
38567;SDS011;24338;48.280;10.970;2023-02-01T06:13:33;9.50;;;5.70;;
38567;SDS011;24338;48.280;10.970;2023-02-01T06:16:01;9.90;;;4.70;;
38567;SDS011;24338;48.280;10.970;2023-02-01T06:18:29;8.43;;;4.45;;
38567;SDS011;24338;48.280;10.970;2023-02-01T06:20:57;10.13;;;4.43;;
38567;SDS011;24338;48.280;10.970;2023-02-01T06:23:27;11.02;;;5.82;;
38567;SDS011;24338;48.280;10.970;2023-02-01T06:25:59;8.70;;;4.90;;
38567;SDS011;24338;48.280;10.970;2023-02-01T06:28:31;9.55;;;5.40;;
38567;SDS011;24338;48.280;10.970;2023-02-01T06:31:02;12.93;;;5.50;;
38567;SDS011;24338;48.280;10.970;2023-02-01T06:33:33;9.60;;;5.10;;
38567;SDS011;24338;48.280;10.970;2023-02-01T06:36:01;7.50;;;4.57;;
38567;SDS011;24338;48.280;10.970;2023-02-01T06:38:30;8.57;;;4.57;;
38567;SDS011;24338;48.280;10.970;2023-02-01T06:40:57;10.90;;;5.43;;
38567;SDS011;24338;48.280;10.970;2023-02-01T06:43:24;11.38;;;5.40;;
38567;SDS011;24338;48.280;10.970;2023-02-01T06:45:52;8.82;;;5.45;;
38567;SDS011;24338;48.280;10.970;2023-02-01T06:48:20;8.20;;;5.55;;
38567;SDS011;24338;48.280;10.970;2023-02-01T06:50:46;8.98;;;5.53;;
38567;SDS011;24338;48.280;10.970;2023-02-01T06:53:13;10.20;;;6.47;;
38567;SDS011;24338;48.280;10.970;2023-02-01T06:55:40;9.75;;;6.53;;
38567;SDS011;24338;48.280;10.970;2023-02-01T06:58:07;10.52;;;5.60;;
38567;SDS011;24338;48.280;10.970;2023-02-01T07:00:33;8.60;;;5.60;;
38567;SDS011;24338;48.280;10.970;2023-02-01T07:03:01;8.75;;;5.00;;
38567;SDS011;24338;48.280;10.970;2023-02-01T07:05:28;9.73;;;4.90;;
38567;SDS011;24338;48.280;10.970;2023-02-01T07:07:55;8.20;;;4.88;;
38567;SDS011;24338;48.280;10.970;2023-02-01T07:10:21;9.55;;;4.72;;
38567;SDS011;24338;48.280;10.970;2023-02-01T07:12:49;9.77;;;5.38;;
38567;SDS011;24338;48.280;10.970;2023-02-01T07:15:16;11.40;;;5.55;;
38567;SDS011;24338;48.280;10.970;2023-02-01T07:17:43;9.95;;;5.75;;
38567;SDS011;24338;48.280;10.970;2023-02-01T07:20:10;8.90;;;5.47;;
38567;SDS011;24338;48.280;10.970;2023-02-01T07:22:37;11.02;;;5.60;;
38567;SDS011;24338;48.280;10.970;2023-02-01T07:25:10;9.45;;;4.97;;
38567;SDS011;24338;48.280;10.970;2023-02-01T07:27:37;7.53;;;4.43;;
38567;SDS011;24338;48.280;10.970;2023-02-01T07:30:04;7.75;;;3.92;;
38567;SDS011;24338;48.280;10.970;2023-02-01T07:32:31;10.25;;;4.25;;
38567;SDS011;24338;48.280;10.970;2023-02-01T07:34:58;6.07;;;3.67;;
38567;SDS011;24338;48.280;10.970;2023-02-01T07:37:25;7.38;;;3.67;;
38567;SDS011;24338;48.280;10.970;2023-02-01T07:39:52;10.05;;;4.28;;
38567;SDS011;24338;48.280;10.970;2023-02-01T07:42:19;8.30;;;4.53;;
38567;SDS011;24338;48.280;10.970;2023-02-01T07:44:45;5.65;;;3.17;;
38567;SDS011;24338;48.280;10.970;2023-02-01T07:47:12;7.40;;;5.18;;
38567;SDS011;24338;48.280;10.970;2023-02-01T07:49:39;6.70;;;3.58;;
38567;SDS011;24338;48.280;10.970;2023-02-01T07:52:06;6.97;;;4.13;;
38567;SDS011;24338;48.280;10.970;2023-02-01T07:54:33;6.03;;;3.42;;
38567;SDS011;24338;48.280;10.970;2023-02-01T07:56:59;5.15;;;3.00;;
38567;SDS011;24338;48.280;10.970;2023-02-01T07:59:26;6.68;;;3.58;;
38567;SDS011;24338;48.280;10.970;2023-02-01T08:01:53;7.15;;;3.90;;
38567;SDS011;24338;48.280;10.970;2023-02-01T08:04:20;5.53;;;3.20;;
38567;SDS011;24338;48.280;10.970;2023-02-01T08:06:46;7.00;;;3.53;;
38567;SDS011;24338;48.280;10.970;2023-02-01T08:09:13;5.07;;;2.85;;
38567;SDS011;24338;48.280;10.970;2023-02-01T08:11:41;8.07;;;3.85;;
38567;SDS011;24338;48.280;10.970;2023-02-01T08:14:07;6.25;;;3.78;;
38567;SDS011;24338;48.280;10.970;2023-02-01T08:16:34;5.60;;;2.70;;
38567;SDS011;24338;48.280;10.970;2023-02-01T08:19:03;5.63;;;2.63;;
38567;SDS011;24338;48.280;10.970;2023-02-01T08:21:30;6.95;;;3.78;;
38567;SDS011;24338;48.280;10.970;2023-02-01T08:24:07;6.20;;;3.38;;
38567;SDS011;24338;48.280;10.970;2023-02-01T08:26:35;7.55;;;3.47;;
38567;SDS011;24338;48.280;10.970;2023-02-01T08:29:03;5.60;;;3.50;;
38567;SDS011;24338;48.280;10.970;2023-02-01T08:31:31;7.25;;;3.50;;
38567;SDS011;24338;48.280;10.970;2023-02-01T08:33:59;5.80;;;3.40;;
38567;SDS011;24338;48.280;10.970;2023-02-01T08:36:28;6.32;;;3.60;;
38567;SDS011;24338;48.280;10.970;2023-02-01T08:38:56;6.68;;;3.10;;
38567;SDS011;24338;48.280;10.970;2023-02-01T08:41:25;5.47;;;3.05;;
38567;SDS011;24338;48.280;10.970;2023-02-01T08:43:53;7.45;;;3.42;;
38567;SDS011;24338;48.280;10.970;2023-02-01T08:46:21;7.25;;;4.55;;
38567;SDS011;24338;48.280;10.970;2023-02-01T08:48:48;6.60;;;3.92;;
38567;SDS011;24338;48.280;10.970;2023-02-01T08:51:17;6.90;;;3.92;;
38567;SDS011;24338;48.280;10.970;2023-02-01T08:53:45;4.95;;;3.08;;
38567;SDS011;24338;48.280;10.970;2023-02-01T08:56:13;6.97;;;3.60;;
38567;SDS011;24338;48.280;10.970;2023-02-01T08:58:41;5.65;;;2.78;;
38567;SDS011;24338;48.280;10.970;2023-02-01T09:01:10;6.60;;;3.10;;
38567;SDS011;24338;48.280;10.970;2023-02-01T09:03:39;4.47;;;2.50;;
38567;SDS011;24338;48.280;10.970;2023-02-01T09:06:07;5.00;;;2.60;;
38567;SDS011;24338;48.280;10.970;2023-02-01T09:08:36;4.15;;;2.33;;
38567;SDS011;24338;48.280;10.970;2023-02-01T09:11:08;4.68;;;2.58;;
38567;SDS011;24338;48.280;10.970;2023-02-01T09:13:38;4.55;;;3.03;;
38567;SDS011;24338;48.280;10.970;2023-02-01T09:16:05;6.40;;;2.67;;
38567;SDS011;24338;48.280;10.970;2023-02-01T09:18:32;11.18;;;5.10;;
38567;SDS011;24338;48.280;10.970;2023-02-01T09:20:59;7.28;;;2.75;;
38567;SDS011;24338;48.280;10.970;2023-02-01T09:23:29;4.15;;;2.20;;
38567;SDS011;24338;48.280;10.970;2023-02-01T09:26:02;5.57;;;2.55;;
38567;SDS011;24338;48.280;10.970;2023-02-01T09:28:30;4.38;;;2.20;;
38567;SDS011;24338;48.280;10.970;2023-02-01T09:31:07;5.72;;;2.40;;
38567;SDS011;24338;48.280;10.970;2023-02-01T09:33:35;5.28;;;2.70;;
38567;SDS011;24338;48.280;10.970;2023-02-01T09:36:03;4.00;;;2.00;;
38567;SDS011;24338;48.280;10.970;2023-02-01T09:38:30;3.47;;;2.13;;
38567;SDS011;24338;48.280;10.970;2023-02-01T09:41:06;5.22;;;1.88;;
38567;SDS011;24338;48.280;10.970;2023-02-01T09:43:48;6.03;;;2.50;;
38567;SDS011;24338;48.280;10.970;2023-02-01T09:46:21;4.20;;;2.15;;
38567;SDS011;24338;48.280;10.970;2023-02-01T09:48:52;4.22;;;2.30;;
38567;SDS011;24338;48.280;10.970;2023-02-01T09:51:25;4.05;;;1.50;;
38567;SDS011;24338;48.280;10.970;2023-02-01T09:56:34;4.90;;;2.45;;
38567;SDS011;24338;48.280;10.970;2023-02-01T10:01:48;6.07;;;2.42;;
38567;SDS011;24338;48.280;10.970;2023-02-01T10:04:15;4.78;;;2.28;;
38567;SDS011;24338;48.280;10.970;2023-02-01T10:28:48;5.38;;;2.30;;
38567;SDS011;24338;48.280;10.970;2023-02-01T10:31:24;4.43;;;2.15;;
38567;SDS011;24338;48.280;10.970;2023-02-01T10:33:59;3.83;;;1.98;;
38567;SDS011;24338;48.280;10.970;2023-02-01T10:36:29;5.47;;;2.60;;
38567;SDS011;24338;48.280;10.970;2023-02-01T10:39:08;4.72;;;1.88;;
38567;SDS011;24338;48.280;10.970;2023-02-01T10:41:38;4.57;;;2.42;;
38567;SDS011;24338;48.280;10.970;2023-02-01T10:44:11;5.03;;;2.50;;
38567;SDS011;24338;48.280;10.970;2023-02-01T10:46:40;4.55;;;2.25;;
38567;SDS011;24338;48.280;10.970;2023-02-01T10:49:11;8.73;;;2.70;;
38567;SDS011;24338;48.280;10.970;2023-02-01T10:51:52;4.20;;;2.13;;
38567;SDS011;24338;48.280;10.970;2023-02-01T10:54:34;7.07;;;3.00;;
38567;SDS011;24338;48.280;10.970;2023-02-01T10:57:19;6.38;;;3.17;;
38567;SDS011;24338;48.280;10.970;2023-02-01T10:59:49;5.95;;;3.40;;
38567;SDS011;24338;48.280;10.970;2023-02-01T11:02:30;7.38;;;3.20;;
38567;SDS011;24338;48.280;10.970;2023-02-01T11:05:07;5.68;;;2.85;;
38567;SDS011;24338;48.280;10.970;2023-02-01T11:07:36;4.85;;;2.65;;
38567;SDS011;24338;48.280;10.970;2023-02-01T11:10:05;5.50;;;3.15;;
38567;SDS011;24338;48.280;10.970;2023-02-01T11:12:33;5.25;;;3.25;;
38567;SDS011;24338;48.280;10.970;2023-02-01T11:15:12;5.72;;;3.40;;
38567;SDS011;24338;48.280;10.970;2023-02-01T11:17:51;7.13;;;3.42;;
38567;SDS011;24338;48.280;10.970;2023-02-01T11:20:20;6.13;;;3.83;;
38567;SDS011;24338;48.280;10.970;2023-02-01T11:23:16;8.07;;;3.50;;
38567;SDS011;24338;48.280;10.970;2023-02-01T11:26:28;6.32;;;2.70;;
38567;SDS011;24338;48.280;10.970;2023-02-01T11:28:38;6.70;;;3.50;;
38567;SDS011;24338;48.280;10.970;2023-02-01T11:31:08;6.43;;;3.47;;
38567;SDS011;24338;48.280;10.970;2023-02-01T11:33:39;9.10;;;3.40;;
38567;SDS011;24338;48.280;10.970;2023-02-01T11:36:15;9.05;;;3.33;;
38567;SDS011;24338;48.280;10.970;2023-02-01T11:38:51;8.30;;;4.03;;
38567;SDS011;24338;48.280;10.970;2023-02-01T11:41:43;5.97;;;3.10;;
38567;SDS011;24338;48.280;10.970;2023-02-01T11:44:34;9.90;;;3.45;;
38567;SDS011;24338;48.280;10.970;2023-02-01T11:47:19;5.80;;;3.30;;
38567;SDS011;24338;48.280;10.970;2023-02-01T11:49:48;8.40;;;3.30;;
38567;SDS011;24338;48.280;10.970;2023-02-01T12:09:06;8.57;;;3.40;;
38567;SDS011;24338;48.280;10.970;2023-02-01T12:11:50;5.35;;;3.42;;
38567;SDS011;24338;48.280;10.970;2023-02-01T12:17:12;6.00;;;3.75;;
38567;SDS011;24338;48.280;10.970;2023-02-01T12:22:35;7.25;;;3.28;;
38567;SDS011;24338;48.280;10.970;2023-02-01T12:25:18;6.18;;;2.60;;
38567;SDS011;24338;48.280;10.970;2023-02-01T12:39:07;8.15;;;3.55;;
38567;SDS011;24338;48.280;10.970;2023-02-01T12:46:28;7.40;;;2.20;;
38567;SDS011;24338;48.280;10.970;2023-02-01T12:49:04;8.80;;;3.40;;
38567;SDS011;24338;48.280;10.970;2023-02-01T12:51:44;6.35;;;3.20;;
38567;SDS011;24338;48.280;10.970;2023-02-01T12:56:53;6.13;;;3.08;;
38567;SDS011;24338;48.280;10.970;2023-02-01T12:59:36;4.32;;;2.33;;
38567;SDS011;24338;48.280;10.970;2023-02-01T13:07:49;5.60;;;3.38;;
38567;SDS011;24338;48.280;10.970;2023-02-01T13:13:03;5.63;;;2.70;;
38567;SDS011;24338;48.280;10.970;2023-02-01T13:15:47;5.57;;;2.80;;
38567;SDS011;24338;48.280;10.970;2023-02-01T13:18:36;6.75;;;3.53;;
38567;SDS011;24338;48.280;10.970;2023-02-01T13:21:07;5.57;;;2.97;;
38567;SDS011;24338;48.280;10.970;2023-02-01T13:23:39;7.43;;;3.42;;
38567;SDS011;24338;48.280;10.970;2023-02-01T13:26:08;6.32;;;3.08;;
38567;SDS011;24338;48.280;10.970;2023-02-01T13:28:51;5.40;;;3.13;;
38567;SDS011;24338;48.280;10.970;2023-02-01T13:43:01;7.00;;;3.50;;
38567;SDS011;24338;48.280;10.970;2023-02-01T13:45:35;6.00;;;2.83;;
38567;SDS011;24338;48.280;10.970;2023-02-01T13:48:14;5.30;;;2.85;;
38567;SDS011;24338;48.280;10.970;2023-02-01T13:50:49;6.95;;;3.47;;
38567;SDS011;24338;48.280;10.970;2023-02-01T13:53:23;6.90;;;3.10;;
38567;SDS011;24338;48.280;10.970;2023-02-01T13:58:37;6.43;;;3.53;;
38567;SDS011;24338;48.280;10.970;2023-02-01T14:19:22;6.07;;;2.70;;
38567;SDS011;24338;48.280;10.970;2023-02-01T14:21:58;7.85;;;2.67;;
38567;SDS011;24338;48.280;10.970;2023-02-01T14:24:29;8.75;;;2.72;;
38567;SDS011;24338;48.280;10.970;2023-02-01T14:29:51;7.15;;;2.85;;
38567;SDS011;24338;48.280;10.970;2023-02-01T14:32:31;5.28;;;1.80;;
38567;SDS011;24338;48.280;10.970;2023-02-01T14:35:05;6.38;;;2.47;;
38567;SDS011;24338;48.280;10.970;2023-02-01T14:37:35;9.52;;;3.40;;
38567;SDS011;24338;48.280;10.970;2023-02-01T14:40:05;5.78;;;2.53;;
38567;SDS011;24338;48.280;10.970;2023-02-01T14:55:59;8.50;;;2.13;;
38567;SDS011;24338;48.280;10.970;2023-02-01T15:01:02;11.23;;;1.83;;
38567;SDS011;24338;48.280;10.970;2023-02-01T15:03:38;4.30;;;1.92;;
38567;SDS011;24338;48.280;10.970;2023-02-01T15:09:00;8.18;;;1.83;;
38567;SDS011;24338;48.280;10.970;2023-02-01T15:14:24;3.15;;;1.50;;
38567;SDS011;24338;48.280;10.970;2023-02-01T15:16:52;7.88;;;2.15;;
38567;SDS011;24338;48.280;10.970;2023-02-01T15:19:23;6.13;;;1.65;;
38567;SDS011;24338;48.280;10.970;2023-02-01T15:21:52;4.20;;;1.80;;
38567;SDS011;24338;48.280;10.970;2023-02-01T15:24:38;6.78;;;1.85;;
38567;SDS011;24338;48.280;10.970;2023-02-01T15:27:05;5.80;;;1.75;;
38567;SDS011;24338;48.280;10.970;2023-02-01T15:29:32;7.20;;;2.38;;
38567;SDS011;24338;48.280;10.970;2023-02-01T15:32:00;6.05;;;1.95;;
38567;SDS011;24338;48.280;10.970;2023-02-01T15:34:46;6.35;;;1.67;;
38567;SDS011;24338;48.280;10.970;2023-02-01T15:37:15;5.82;;;1.80;;
38567;SDS011;24338;48.280;10.970;2023-02-01T15:42:30;4.43;;;1.83;;
38567;SDS011;24338;48.280;10.970;2023-02-01T15:44:57;5.45;;;1.92;;
38567;SDS011;24338;48.280;10.970;2023-02-01T15:47:25;8.77;;;4.72;;
38567;SDS011;24338;48.280;10.970;2023-02-01T15:49:55;9.38;;;2.22;;
38567;SDS011;24338;48.280;10.970;2023-02-01T15:52:25;5.50;;;1.77;;
38567;SDS011;24338;48.280;10.970;2023-02-01T15:54:55;3.92;;;1.30;;
38567;SDS011;24338;48.280;10.970;2023-02-01T15:57:27;6.20;;;1.98;;
38567;SDS011;24338;48.280;10.970;2023-02-01T16:00:05;3.10;;;1.30;;
38567;SDS011;24338;48.280;10.970;2023-02-01T16:02:53;4.05;;;1.40;;
38567;SDS011;24338;48.280;10.970;2023-02-01T16:08:03;7.55;;;1.50;;
38567;SDS011;24338;48.280;10.970;2023-02-01T16:10:31;3.47;;;1.15;;
38567;SDS011;24338;48.280;10.970;2023-02-01T16:12:58;6.32;;;1.35;;
38567;SDS011;24338;48.280;10.970;2023-02-01T16:15:26;6.97;;;1.20;;
38567;SDS011;24338;48.280;10.970;2023-02-01T16:17:55;7.30;;;1.50;;
38567;SDS011;24338;48.280;10.970;2023-02-01T16:20:22;5.25;;;1.40;;
38567;SDS011;24338;48.280;10.970;2023-02-01T16:22:49;3.25;;;1.40;;
38567;SDS011;24338;48.280;10.970;2023-02-01T16:25:16;3.92;;;1.58;;
38567;SDS011;24338;48.280;10.970;2023-02-01T16:27:43;5.68;;;1.60;;
38567;SDS011;24338;48.280;10.970;2023-02-01T16:30:09;5.97;;;1.35;;
38567;SDS011;24338;48.280;10.970;2023-02-01T16:32:37;5.78;;;1.63;;
38567;SDS011;24338;48.280;10.970;2023-02-01T16:35:05;5.78;;;2.13;;
38567;SDS011;24338;48.280;10.970;2023-02-01T16:38:05;7.95;;;2.20;;
38567;SDS011;24338;48.280;10.970;2023-02-01T16:40:41;7.50;;;2.38;;
38567;SDS011;24338;48.280;10.970;2023-02-01T16:43:13;5.72;;;1.27;;
38567;SDS011;24338;48.280;10.970;2023-02-01T16:45:42;8.70;;;2.25;;
38567;SDS011;24338;48.280;10.970;2023-02-01T16:48:27;7.30;;;2.78;;
38567;SDS011;24338;48.280;10.970;2023-02-01T16:50:57;8.13;;;2.00;;
38567;SDS011;24338;48.280;10.970;2023-02-01T16:53:27;5.75;;;2.28;;
38567;SDS011;24338;48.280;10.970;2023-02-01T16:56:01;4.65;;;2.10;;
38567;SDS011;24338;48.280;10.970;2023-02-01T16:58:32;7.75;;;2.22;;
38567;SDS011;24338;48.280;10.970;2023-02-01T17:01:01;6.25;;;2.10;;
38567;SDS011;24338;48.280;10.970;2023-02-01T17:03:28;5.93;;;1.80;;
38567;SDS011;24338;48.280;10.970;2023-02-01T17:05:55;5.20;;;2.05;;
38567;SDS011;24338;48.280;10.970;2023-02-01T17:08:26;10.05;;;2.83;;
38567;SDS011;24338;48.280;10.970;2023-02-01T17:11:00;8.45;;;2.65;;
38567;SDS011;24338;48.280;10.970;2023-02-01T17:13:27;5.35;;;2.25;;
38567;SDS011;24338;48.280;10.970;2023-02-01T17:15:58;11.45;;;3.22;;
38567;SDS011;24338;48.280;10.970;2023-02-01T17:18:26;7.93;;;2.70;;
38567;SDS011;24338;48.280;10.970;2023-02-01T17:21:00;9.50;;;3.73;;
38567;SDS011;24338;48.280;10.970;2023-02-01T17:23:28;7.03;;;2.70;;
38567;SDS011;24338;48.280;10.970;2023-02-01T17:25:56;7.95;;;3.45;;
38567;SDS011;24338;48.280;10.970;2023-02-01T17:28:24;6.85;;;2.88;;
38567;SDS011;24338;48.280;10.970;2023-02-01T17:30:51;16.83;;;6.35;;
38567;SDS011;24338;48.280;10.970;2023-02-01T17:35:51;6.53;;;2.40;;
38567;SDS011;24338;48.280;10.970;2023-02-01T17:38:20;6.88;;;2.53;;
38567;SDS011;24338;48.280;10.970;2023-02-01T17:40:47;8.13;;;2.13;;
38567;SDS011;24338;48.280;10.970;2023-02-01T17:43:20;9.70;;;2.72;;
38567;SDS011;24338;48.280;10.970;2023-02-01T17:48:18;7.05;;;1.92;;
38567;SDS011;24338;48.280;10.970;2023-02-01T17:50:47;8.48;;;2.55;;
38567;SDS011;24338;48.280;10.970;2023-02-01T17:53:27;10.63;;;2.17;;